Time;durP1;ratioP1;P1;durP2;ratioP2;P2;SDS_P1;SDS_P2;PMS_P1;PMS_P2;Temp;Humidity;BMP_temperature;BMP_pressure;BME280_temperature;BME280_humidity;BME280_pressure;Samples;Min_cycle;Max_cycle;Signal;HPM_P1;HPM_P2
2022/08/05 00:01:45;;;;;;;1.52;1.42;;;26.70;51.00;;;;;;5115237;28;20027;-71
2022/08/05 00:04:11;;;;;;;3.33;1.88;;;26.70;50.80;;;;;;5115019;28;20023;-69
2022/08/05 00:06:36;;;;;;;1.95;1.65;;;26.70;50.90;;;;;;5115125;28;20413;-71
2022/08/05 00:09:03;;;;;;;2.83;1.77;;;26.70;51.20;;;;;;5115598;28;20032;-70
2022/08/05 00:11:28;;;;;;;2.65;1.83;;;26.60;51.30;;;;;;5115021;28;20031;-70
2022/08/05 00:13:54;;;;;;;2.47;1.77;;;26.60;51.60;;;;;;5115071;28;20031;-71
2022/08/05 00:16:20;;;;;;;3.65;1.73;;;26.50;51.90;;;;;;5096560;28;20161;-69
2022/08/05 00:18:47;;;;;;;3.67;1.80;;;26.50;51.70;;;;;;5115296;28;20035;-70
2022/08/05 00:21:14;;;;;;;2.25;1.70;;;26.50;51.90;;;;;;5114805;28;20023;-70
2022/08/05 00:23:41;;;;;;;4.53;1.65;;;26.50;51.70;;;;;;5117733;27;20452;-70
2022/08/05 00:26:07;;;;;;;2.63;2.00;;;26.50;52.10;;;;;;5115136;28;20032;-70
2022/08/05 00:28:33;;;;;;;2.03;1.80;;;26.40;52.60;;;;;;5114746;28;20054;-70
2022/08/05 00:30:59;;;;;;;3.20;1.77;;;26.40;52.50;;;;;;5114726;28;20031;-70
2022/08/05 00:33:25;;;;;;;4.40;1.90;;;26.40;52.50;;;;;;5114508;28;20376;-70
2022/08/05 00:35:50;;;;;;;3.20;2.00;;;26.30;53.10;;;;;;5115071;28;20034;-70
2022/08/05 00:38:16;;;;;;;1.83;1.67;;;26.30;52.70;;;;;;5114588;28;20031;-71
2022/08/05 00:40:47;;;;;;;2.30;1.85;;;26.20;52.80;;;;;;5114799;28;20023;-70
2022/08/05 00:43:12;;;;;;;;;;;26.20;53.10;;;;;;5114845;28;20024;-71
2022/08/05 00:45:38;;;;;;;2.15;1.92;;;26.20;53.10;;;;;;5114742;28;19903;-70
2022/08/05 00:48:04;;;;;;;1.70;1.45;;;26.20;53.40;;;;;;5114734;28;20024;-70
2022/08/05 00:50:30;;;;;;;3.50;1.75;;;26.20;53.70;;;;;;5114112;28;20041;-71
2022/08/05 00:52:56;;;;;;;4.38;2.33;;;26.20;53.90;;;;;;5114668;28;20028;-71
2022/08/05 00:55:22;;;;;;;2.00;1.63;;;26.20;53.90;;;;;;5114451;28;20077;-70
2022/08/05 00:57:48;;;;;;;3.67;1.90;;;26.10;54.50;;;;;;5114454;28;20228;-70
2022/08/05 01:00:13;;;;;;;2.22;1.80;;;26.00;54.60;;;;;;5114466;28;20160;-71
2022/08/05 01:02:39;;;;;;;2.67;2.10;;;26.00;54.60;;;;;;5114370;28;20032;-70
2022/08/05 01:05:05;;;;;;;3.55;2.60;;;26.00;54.70;;;;;;5114302;28;20028;-70
2022/08/05 01:07:31;;;;;;;2.45;2.10;;;25.90;55.50;;;;;;5113839;28;20402;-70
2022/08/05 01:09:57;;;;;;;2.65;2.22;;;26.00;54.80;;;;;;5114151;28;20111;-70
2022/08/05 01:12:24;;;;;;;4.10;3.05;;;26.00;55.40;;;;;;5113206;28;20428;-70
2022/08/05 01:15:06;;;;;;;10.13;7.57;;;26.00;55.70;;;;;;5112911;28;20372;-70
2022/08/05 01:17:49;;;;;;;5.72;3.42;;;25.90;56.30;;;;;;5113361;28;20055;-70
2022/08/05 01:20:41;;;;;;;4.00;2.22;;;25.90;56.20;;;;;;5113711;28;20031;-70
2022/08/05 01:23:15;;;;;;;5.35;2.22;;;25.90;56.10;;;;;;5113764;28;20379;-70
2022/08/05 01:26:31;;;;;;;5.07;2.00;;;25.90;56.20;;;;;;5113602;28;20467;-69
2022/08/05 01:29:04;;;;;;;3.42;2.08;;;25.90;56.00;;;;;;5070299;28;20051;-70
2022/08/05 01:31:42;;;;;;;4.28;1.80;;;25.90;56.20;;;;;;5112951;28;20088;-70
2022/08/05 01:34:21;;;;;;;3.55;2.25;;;25.90;56.30;;;;;;5113695;28;20146;-70
2022/08/05 01:37:04;;;;;;;2.47;1.92;;;25.90;56.30;;;;;;5113233;28;20043;-70
2022/08/05 01:39:32;;;;;;;3.13;2.40;;;25.90;56.40;;;;;;5112959;28;20075;-70
2022/08/05 01:42:00;;;;;;;2.20;1.95;;;25.90;56.70;;;;;;5113630;28;20134;-70
2022/08/05 01:44:27;;;;;;;2.55;2.30;;;25.90;56.90;;;;;;5112403;28;20379;-70
2022/08/05 01:46:54;;;;;;;5.97;2.97;;;25.90;57.70;;;;;;5094812;28;20457;-70
2022/08/05 01:49:22;;;;;;;2.40;2.20;;;25.90;57.80;;;;;;5112750;28;20043;-71
2022/08/05 01:51:49;;;;;;;2.83;2.28;;;25.80;58.40;;;;;;5113107;28;20367;-70
2022/08/05 01:54:18;;;;;;;5.60;2.10;;;25.80;58.30;;;;;;5113079;28;20024;-70
2022/08/05 01:56:46;;;;;;;2.30;1.80;;;25.80;58.90;;;;;;5113515;28;20028;-70
2022/08/05 01:59:16;;;;;;;3.22;2.25;;;25.80;59.00;;;;;;5128611;27;20023;-70
2022/08/05 02:01:44;;;;;;;3.88;2.30;;;25.80;58.90;;;;;;5133522;27;20027;-69
2022/08/05 02:04:12;;;;;;;2.67;2.08;;;25.70;59.00;;;;;;5133860;27;20027;-69
2022/08/05 02:06:38;;;;;;;5.90;2.50;;;25.80;58.90;;;;;;5133330;27;20181;-69
2022/08/05 02:09:05;;;;;;;3.88;2.47;;;25.70;59.10;;;;;;5133596;27;20148;-69
2022/08/05 02:11:49;;;;;;;3.45;2.40;;;25.70;59.10;;;;;;5133224;27;20467;-69
2022/08/05 02:14:45;;;;;;;3.75;2.38;;;25.70;59.50;;;;;;5133381;27;20374;-69
2022/08/05 02:17:18;;;;;;;3.70;2.22;;;25.60;59.70;;;;;;5128446;27;20462;-69
2022/08/05 02:19:51;;;;;;;4.30;2.40;;;25.50;60.50;;;;;;5133120;27;20019;-69
2022/08/05 02:22:19;;;;;;;2.95;2.28;;;25.40;60.90;;;;;;5132578;27;20015;-69
2022/08/05 02:24:56;;;;;;;4.25;2.40;;;25.50;60.50;;;;;;5112736;28;20509;-69
2022/08/05 02:27:22;;;;;;;2.97;2.63;;;25.40;60.60;;;;;;5112521;28;20023;-69
2022/08/05 02:29:50;;;;;;;2.65;2.17;;;25.40;60.90;;;;;;5112647;28;20390;-69
2022/08/05 02:32:19;;;;;;;3.92;2.90;;;25.30;58.90;;;;;;5112837;28;20030;-69
2022/08/05 02:34:45;;;;;;;3.45;2.53;;;25.30;59.20;;;;;;5112168;28;20063;-70
2022/08/05 02:37:12;;;;;;;3.63;2.13;;;25.30;58.00;;;;;;5112552;28;20417;-70
2022/08/05 02:39:39;;;;;;;7.72;2.10;;;25.30;57.40;;;;;;5112144;28;20036;-70
2022/08/05 02:42:06;;;;;;;3.15;2.38;;;25.30;57.20;;;;;;5112697;28;20024;-70
2022/08/05 02:44:35;;;;;;;4.15;2.70;;;25.30;57.20;;;;;;5111992;28;20026;-70
2022/08/05 02:47:03;;;;;;;2.70;2.50;;;25.20;57.40;;;;;;5112407;28;20030;-70
2022/08/05 02:49:33;;;;;;;3.85;2.10;;;25.10;56.50;;;;;;5111637;28;20387;-69
2022/08/05 02:52:01;;;;;;;2.92;2.17;;;25.10;56.50;;;;;;5112485;28;20019;-70
2022/08/05 02:54:27;;;;;;;3.67;2.42;;;25.10;56.20;;;;;;5111692;28;20403;-70
2022/08/05 02:56:54;;;;;;;2.90;2.08;;;25.00;55.30;;;;;;5112391;28;20023;-69
2022/08/05 02:59:21;;;;;;;2.85;2.05;;;24.90;55.00;;;;;;5112348;28;20080;-69
2022/08/05 03:01:50;;;;;;;2.80;2.00;;;24.90;55.70;;;;;;5111945;28;20051;-70
2022/08/05 03:04:17;;;;;;;2.58;1.90;;;24.80;55.40;;;;;;5112330;28;20039;-70
2022/08/05 03:06:42;;;;;;;4.43;2.22;;;24.80;55.40;;;;;;5111764;28;20058;-70
2022/08/05 03:09:12;;;;;;;2.03;1.92;;;24.70;55.60;;;;;;5112337;28;20324;-70
2022/08/05 03:11:41;;;;;;;3.63;2.20;;;24.70;55.90;;;;;;5111568;28;20468;-70
2022/08/05 03:14:07;;;;;;;4.22;2.00;;;24.70;56.10;;;;;;5112335;28;20035;-70
2022/08/05 03:16:33;;;;;;;2.28;2.08;;;24.70;56.40;;;;;;5111730;28;20375;-70
2022/08/05 03:19:00;;;;;;;2.10;1.90;;;24.70;56.30;;;;;;5112242;28;20027;-70
2022/08/05 03:21:25;;;;;;;4.47;2.00;;;24.70;56.70;;;;;;5111823;28;20111;-72
2022/08/05 03:23:51;;;;;;;2.78;2.20;;;24.60;57.50;;;;;;5111895;28;20051;-70
2022/08/05 03:26:17;;;;;;;3.47;2.35;;;24.60;57.20;;;;;;5112302;28;20468;-70
2022/08/05 03:28:43;;;;;;;2.45;2.20;;;24.60;57.40;;;;;;5111700;28;20450;-70
2022/08/05 03:31:10;;;;;;;3.55;2.20;;;24.60;57.40;;;;;;5112342;28;20027;-70
2022/08/05 03:33:35;;;;;;;3.58;2.40;;;24.60;57.50;;;;;;5111658;28;20072;-70
2022/08/05 03:36:01;;;;;;;3.67;2.10;;;24.60;57.40;;;;;;5112322;28;20123;-70
2022/08/05 03:38:27;;;;;;;2.58;2.00;;;24.50;57.00;;;;;;5115131;28;20020;-71
2022/08/05 03:40:53;;;;;;;2.17;1.90;;;24.50;56.40;;;;;;5115767;28;20067;-70
2022/08/05 03:43:19;;;;;;;3.72;2.00;;;24.50;56.20;;;;;;5115736;28;20481;-70
2022/08/05 03:45:45;;;;;;;4.53;2.28;;;24.50;56.00;;;;;;5115542;28;20023;-70
2022/08/05 03:48:11;;;;;;;2.47;1.90;;;24.40;55.80;;;;;;5115868;28;20032;-70
2022/08/05 03:50:51;;;;;;;1.95;1.83;;;24.40;55.50;;;;;;5115295;28;20389;-70
2022/08/05 03:53:37;;;;;;;2.97;2.00;;;24.40;55.60;;;;;;5116054;28;20044;-70
2022/08/05 03:56:12;;;;;;;2.45;1.98;;;24.30;55.70;;;;;;5131229;27;20367;-70
2022/08/05 03:58:39;;;;;;;4.65;2.17;;;24.20;55.90;;;;;;5135563;27;20019;-70
2022/08/05 04:01:07;;;;;;;2.67;1.98;;;24.20;56.00;;;;;;5135885;27;20023;-70
2022/08/05 04:03:36;;;;;;;2.95;2.08;;;24.10;56.20;;;;;;5135443;27;20038;-70
2022/08/05 04:06:04;;;;;;;2.92;2.08;;;24.10;56.40;;;;;;5135774;27;20058;-70
2022/08/05 04:08:32;;;;;;;3.70;2.30;;;24.10;56.50;;;;;;5135182;27;20077;-71
2022/08/05 04:10:58;;;;;;;3.22;2.10;;;24.10;56.60;;;;;;5135816;27;20372;-70
2022/08/05 04:13:25;;;;;;;4.10;1.98;;;24.00;56.90;;;;;;5135598;27;20285;-70
2022/08/05 04:15:51;;;;;;;2.70;2.10;;;24.00;57.20;;;;;;5135348;27;20019;-70
2022/08/05 04:18:16;;;;;;;2.20;2.00;;;23.90;57.60;;;;;;5135681;27;20038;-70
2022/08/05 04:20:42;;;;;;;3.03;2.10;;;23.90;57.50;;;;;;5135211;27;20023;-69
2022/08/05 04:23:11;;;;;;;2.08;1.92;;;23.90;57.70;;;;;;5135150;27;20034;-70
2022/08/05 04:25:36;;;;;;;3.47;1.95;;;24.00;57.80;;;;;;5132770;27;20482;-69
2022/08/05 04:28:02;;;;;;;2.15;1.95;;;24.00;58.00;;;;;;5135196;27;20027;-68
2022/08/05 04:30:28;;;;;;;2.35;1.98;;;24.00;58.00;;;;;;5135177;27;20490;-69
2022/08/05 04:32:53;;;;;;;5.38;2.28;;;24.10;58.10;;;;;;5135478;27;20489;-69
2022/08/05 04:35:19;;;;;;;2.22;1.85;;;24.20;57.90;;;;;;5135397;27;20038;-69
2022/08/05 04:37:45;;;;;;;4.22;1.98;;;24.30;57.50;;;;;;5134671;27;20046;-69
2022/08/05 04:40:10;;;;;;;2.55;1.52;;;24.40;57.40;;;;;;5135121;27;20080;-69
2022/08/05 04:42:36;;;;;;;1.80;1.70;;;24.40;57.10;;;;;;5134787;27;20106;-69
2022/08/05 04:45:02;;;;;;;1.90;1.58;;;24.60;56.80;;;;;;5135179;27;20027;-70
2022/08/05 04:47:28;;;;;;;6.03;2.33;;;24.70;56.40;;;;;;5135141;27;20042;-69
2022/08/05 04:49:54;;;;;;;1.85;1.75;;;24.80;56.10;;;;;;5134092;27;20118;-69
2022/08/05 04:52:19;;;;;;;4.47;1.92;;;24.90;56.00;;;;;;5116403;27;20513;-69
2022/08/05 04:54:45;;;;;;;2.78;2.00;;;25.00;55.80;;;;;;5134699;27;20032;-69
2022/08/05 04:57:11;;;;;;;2.38;1.67;;;25.10;55.70;;;;;;5134986;27;20015;-69
2022/08/05 04:59:36;;;;;;;3.58;1.85;;;25.20;55.60;;;;;;5134528;27;20087;-70
2022/08/05 05:02:02;;;;;;;2.50;1.98;;;25.30;55.50;;;;;;5134893;27;20062;-70
2022/08/05 05:04:28;;;;;;;2.05;1.60;;;25.40;55.10;;;;;;5134851;27;20105;-70
2022/08/05 05:06:53;;;;;;;2.17;1.90;;;25.50;54.80;;;;;;5134210;27;20034;-70
2022/08/05 05:09:19;;;;;;;3.03;1.92;;;25.50;54.70;;;;;;5134583;27;20035;-70
2022/08/05 05:11:45;;;;;;;5.40;2.00;;;25.60;54.60;;;;;;5134689;27;20027;-69
2022/08/05 05:14:10;;;;;;;3.15;2.22;;;25.80;54.10;;;;;;5134773;27;20451;-71
2022/08/05 05:16:36;;;;;;;3.47;2.10;;;26.00;53.70;;;;;;5134251;27;20023;-71
2022/08/05 05:19:02;;;;;;;2.58;2.28;;;26.10;53.40;;;;;;5134715;27;20030;-71
2022/08/05 05:21:27;;;;;;;6.47;2.42;;;26.20;53.70;;;;;;5134209;27;20031;-71
2022/08/05 05:23:53;;;;;;;2.53;2.05;;;26.30;52.90;;;;;;5133961;27;20055;-70
2022/08/05 05:26:19;;;;;;;2.25;1.85;;;26.30;53.00;;;;;;5134197;27;20054;-70
2022/08/05 05:28:45;;;;;;;2.08;1.88;;;26.50;52.90;;;;;;5133532;27;20044;-69
2022/08/05 05:31:11;;;;;;;4.55;1.60;;;26.70;52.50;;;;;;5116018;27;20034;-69
2022/08/05 05:33:36;;;;;;;3.10;2.00;;;26.80;52.30;;;;;;5133285;27;20360;-69
2022/08/05 05:36:02;;;;;;;2.50;2.30;;;27.10;52.00;;;;;;5134161;27;20041;-69
2022/08/05 05:38:28;;;;;;;2.35;1.85;;;27.30;51.50;;;;;;5134091;27;20023;-69
2022/08/05 05:40:55;;;;;;;3.30;1.95;;;27.60;50.40;;;;;;5114934;27;20074;-69
2022/08/05 05:43:21;;;;;;;2.20;1.75;;;27.80;49.90;;;;;;5133929;27;20027;-70
2022/08/05 05:45:47;;;;;;;6.20;2.30;;;28.10;49.40;;;;;;5133249;27;20052;-71
2022/08/05 05:48:13;;;;;;;4.88;2.10;;;28.30;48.80;;;;;;5133973;27;20063;-70
2022/08/05 05:50:39;;;;;;;2.00;1.75;;;28.60;48.50;;;;;;5132935;27;20083;-71
2022/08/05 05:53:07;;;;;;;2.33;1.75;;;28.90;47.90;;;;;;5130269;27;20023;-69
2022/08/05 05:55:33;;;;;;;3.15;2.22;;;29.10;47.60;;;;;;5113201;28;20024;-69
2022/08/05 05:57:58;;;;;;;2.58;1.80;;;29.40;47.80;;;;;;5112905;28;20031;-69
2022/08/05 06:00:24;;;;;;;2.17;1.90;;;29.90;46.40;;;;;;5112549;28;20034;-70
2022/08/05 06:02:49;;;;;;;2.13;1.70;;;30.60;45.90;;;;;;5094544;28;20028;-70
2022/08/05 06:05:16;;;;;;;2.35;1.75;;;31.30;44.50;;;;;;5113085;28;20027;-70
2022/08/05 06:07:42;;;;;;;1.90;1.67;;;32.30;43.20;;;;;;5112578;28;20027;-70
2022/08/05 06:10:08;;;;;;;2.63;2.00;;;33.20;41.50;;;;;;5113038;28;20532;-70
2022/08/05 06:12:35;;;;;;;1.77;1.67;;;33.90;39.80;;;;;;5112751;28;20063;-70
2022/08/05 06:15:03;;;;;;;1.70;1.55;;;34.60;38.60;;;;;;5113106;28;20047;-70
2022/08/05 06:17:29;;;;;;;1.50;1.40;;;35.10;37.70;;;;;;5113008;28;20072;-70
2022/08/05 06:19:54;;;;;;;3.65;1.55;;;35.40;37.60;;;;;;5094294;28;20027;-70
2022/08/05 06:22:28;;;;;;;1.42;1.33;;;35.70;37.20;;;;;;5112855;28;20034;-70
2022/08/05 06:24:53;;;;;;;4.68;2.30;;;35.90;36.80;;;;;;5112241;28;20031;-70
2022/08/05 06:27:19;;;;;;;1.63;1.52;;;36.20;36.30;;;;;;5112815;28;20046;-70
2022/08/05 06:29:45;;;;;;;1.63;1.17;;;36.40;36.40;;;;;;5112287;28;20376;-71
2022/08/05 06:32:11;;;;;;;1.88;1.58;;;36.40;35.90;;;;;;5112798;28;20385;-70
2022/08/05 06:34:36;;;;;;;2.13;1.60;;;36.00;35.60;;;;;;5115119;28;20023;-70
2022/08/05 06:37:02;;;;;;;2.30;2.00;;;35.20;36.50;;;;;;5112158;28;20027;-70
2022/08/05 06:39:28;;;;;;;1.70;1.58;;;34.80;37.90;;;;;;5112771;28;20031;-70
2022/08/05 06:41:55;;;;;;;2.80;1.85;;;34.90;38.00;;;;;;5112276;28;20059;-71
2022/08/05 06:44:21;;;;;;;1.70;1.60;;;35.10;38.20;;;;;;5112747;28;20023;-70
2022/08/05 06:46:46;;;;;;;1.55;1.45;;;35.30;38.50;;;;;;5112564;28;20026;-71
2022/08/05 06:49:12;;;;;;;2.38;1.77;;;35.60;37.80;;;;;;5112668;28;20032;-71
2022/08/05 06:51:38;;;;;;;2.83;1.98;;;35.90;37.60;;;;;;5112650;28;20379;-71
2022/08/05 06:54:03;;;;;;;2.17;1.80;;;35.80;36.80;;;;;;5111957;28;20020;-71
2022/08/05 06:56:31;;;;;;;1.90;1.73;;;35.50;36.80;;;;;;5112873;28;20030;-71
2022/08/05 06:58:57;;;;;;;2.13;1.70;;;35.90;36.70;;;;;;5112191;28;20055;-71
2022/08/05 07:01:22;;;;;;;1.70;1.60;;;36.30;37.30;;;;;;5112628;28;20123;-71
2022/08/05 07:03:48;;;;;;;1.40;1.30;;;36.80;36.80;;;;;;5112061;28;20024;-71
2022/08/05 07:06:14;;;;;;;2.05;1.80;;;37.30;36.30;;;;;;5112475;28;20095;-71
2022/08/05 07:08:41;;;;;;;2.08;1.75;;;37.90;35.40;;;;;;5112342;28;20114;-71
2022/08/05 07:11:07;;;;;;;3.53;1.63;;;38.60;35.00;;;;;;5112897;28;20030;-71
2022/08/05 07:19:02;;;;;;;2.13;1.92;;;39.90;32.90;;;;;;5115808;28;20039;-71
2022/08/05 07:21:29;;;;;;;2.40;1.70;;;40.50;32.40;;;;;;5116176;28;20028;-71
2022/08/05 07:23:55;;;;;;;1.70;1.60;;;41.30;32.40;;;;;;5115802;28;20027;-71
2022/08/05 07:26:21;;;;;;;2.17;1.95;;;42.20;31.80;;;;;;5115964;28;20531;-71
2022/08/05 07:28:47;;;;;;;1.90;1.55;;;42.70;30.90;;;;;;5115516;28;20052;-71
2022/08/05 07:31:12;;;;;;;1.50;1.40;;;43.20;30.20;;;;;;5116299;28;20060;-71
2022/08/05 07:33:38;;;;;;;2.05;1.85;;;43.90;29.40;;;;;;5115752;28;20020;-71
2022/08/05 07:36:04;;;;;;;2.15;1.60;;;44.40;29.20;;;;;;5115539;28;20379;-71
2022/08/05 07:38:31;;;;;;;5.32;1.63;;;44.70;28.80;;;;;;5115836;28;20040;-71
2022/08/05 07:40:56;;;;;;;2.70;1.30;;;45.00;28.60;;;;;;5115457;28;20086;-70
2022/08/05 07:43:22;;;;;;;1.52;1.42;;;45.40;28.40;;;;;;5115726;28;20412;-70
2022/08/05 07:45:47;;;;;;;6.15;1.60;;;45.70;28.10;;;;;;5115214;28;20059;-70
2022/08/05 07:48:13;;;;;;;1.75;1.50;;;45.60;28.20;;;;;;5115773;28;20103;-71
2022/08/05 07:50:39;;;;;;;2.10;1.67;;;46.00;28.70;;;;;;5115555;28;20529;-70
2022/08/05 07:53:05;;;;;;;1.60;1.50;;;46.00;27.80;;;;;;5115172;28;20051;-70
2022/08/05 07:55:30;;;;;;;1.50;1.40;;;46.60;28.20;;;;;;5115436;28;20026;-70
2022/08/05 07:57:57;;;;;;;1.63;1.50;;;47.00;27.70;;;;;;5116229;27;20028;-71
2022/08/05 08:00:24;;;;;;;4.20;1.73;;;47.10;27.70;;;;;;5134358;27;20043;-71
2022/08/05 08:02:49;;;;;;;1.50;1.40;;;47.20;27.50;;;;;;5135643;27;20023;-71
2022/08/05 08:05:15;;;;;;;1.90;1.40;;;47.70;27.40;;;;;;5135515;27;20022;-71
2022/08/05 08:07:41;;;;;;;1.50;1.40;;;48.00;27.20;;;;;;5135884;27;20027;-71
2022/08/05 08:10:07;;;;;;;2.40;1.85;;;47.90;26.90;;;;;;5134860;27;20211;-71
2022/08/05 08:12:32;;;;;;;1.65;1.55;;;48.30;26.60;;;;;;5135776;27;20114;-71
2022/08/05 08:14:58;;;;;;;5.47;1.60;;;48.30;26.30;;;;;;5135592;27;20543;-72
2022/08/05 08:17:23;;;;;;;1.67;1.40;;;48.40;26.70;;;;;;5135685;27;20027;-72
2022/08/05 08:19:49;;;;;;;1.85;1.52;;;48.60;26.70;;;;;;5135580;27;20076;-72
2022/08/05 08:22:15;;;;;;;1.70;1.58;;;48.80;26.40;;;;;;5135332;27;20106;-71
2022/08/05 08:24:40;;;;;;;2.65;1.50;;;48.30;26.70;;;;;;5135275;27;20111;-71
2022/08/05 08:27:07;;;;;;;1.42;1.30;;;48.40;26.70;;;;;;5132995;27;20031;-72
2022/08/05 08:29:32;;;;;;;2.70;1.60;;;48.40;26.30;;;;;;5134179;27;20126;-71
2022/08/05 08:31:58;;;;;;;1.70;1.60;;;48.40;26.60;;;;;;5135099;27;20102;-71
2022/08/05 08:34:25;;;;;;;1.92;1.55;;;48.50;26.70;;;;;;5135165;27;20019;-72
2022/08/05 08:36:51;;;;;;;4.25;1.80;;;48.80;26.80;;;;;;5134918;27;20046;-72
2022/08/05 08:39:17;;;;;;;1.65;1.55;;;48.80;26.80;;;;;;5135392;27;20034;-72
2022/08/05 08:41:46;;;;;;;1.33;1.23;;;48.80;26.30;;;;;;5135215;27;20343;-72
2022/08/05 08:44:14;;;;;;;2.47;1.38;;;48.80;26.40;;;;;;5134925;27;20083;-71
2022/08/05 08:46:42;;;;;;;2.83;1.70;;;48.60;26.30;;;;;;5135169;27;20027;-71
2022/08/05 08:49:12;;;;;;;1.60;1.50;;;48.50;26.60;;;;;;5115759;27;20070;-71
2022/08/05 08:51:40;;;;;;;1.95;1.75;;;48.20;26.80;;;;;;5135092;27;20023;-71
2022/08/05 08:54:06;;;;;;;2.33;2.00;;;47.50;27.10;;;;;;5134082;27;20395;-71
2022/08/05 08:56:32;;;;;;;3.25;2.25;;;46.80;27.30;;;;;;5135218;27;20470;-71
2022/08/05 08:58:59;;;;;;;1.85;1.63;;;46.30;27.60;;;;;;5134472;27;20027;-71
2022/08/05 09:01:25;;;;;;;1.60;1.48;;;45.20;27.90;;;;;;5134844;27;20023;-71
2022/08/05 09:03:52;;;;;;;4.00;1.90;;;44.40;28.60;;;;;;5134679;27;20148;-70
2022/08/05 09:06:18;;;;;;;1.77;1.58;;;43.70;28.80;;;;;;5134891;27;20028;-71
2022/08/05 09:08:44;;;;;;;1.90;1.60;;;43.10;28.90;;;;;;5134277;27;20029;-71
2022/08/05 09:11:11;;;;;;;1.85;1.65;;;42.50;29.40;;;;;;5134255;27;20047;-71
2022/08/05 09:13:37;;;;;;;2.25;1.60;;;41.80;29.90;;;;;;5134484;27;20068;-70
2022/08/05 09:16:03;;;;;;;2.05;1.77;;;41.20;30.10;;;;;;5133975;27;20023;-71
2022/08/05 09:18:29;;;;;;;1.85;1.48;;;40.70;30.40;;;;;;5116044;27;20063;-71
2022/08/05 09:20:55;;;;;;;1.85;1.70;;;40.20;31.10;;;;;;5133586;27;20035;-71
2022/08/05 09:23:20;;;;;;;1.88;1.77;;;39.90;31.60;;;;;;5133942;27;20019;-71
2022/08/05 09:25:52;;;;;;;1.90;1.70;;;39.60;31.80;;;;;;5134350;27;20030;-71
2022/08/05 09:28:23;;;;;;;1.48;1.38;;;39.20;32.40;;;;;;5133985;27;20098;-70
2022/08/05 09:31:12;;;;;;;4.63;1.50;;;39.10;32.90;;;;;;5134276;27;20031;-71
2022/08/05 09:33:51;;;;;;;2.15;1.95;;;38.80;32.90;;;;;;5115421;27;20383;-71
2022/08/05 09:36:18;;;;;;;1.60;1.50;;;38.30;33.10;;;;;;5133932;27;20027;-71
2022/08/05 09:39:05;;;;;;;2.08;1.77;;;38.10;33.60;;;;;;5134370;27;20038;-71
2022/08/05 09:41:31;;;;;;;2.25;1.75;;;37.90;33.90;;;;;;5134452;27;20035;-71
2022/08/05 09:43:56;;;;;;;1.60;1.50;;;37.70;34.10;;;;;;5133608;27;20068;-71
2022/08/05 09:46:33;;;;;;;2.80;1.60;;;37.60;34.20;;;;;;5133583;27;20031;-71
2022/08/05 09:49:05;;;;;;;3.20;1.70;;;37.30;34.60;;;;;;5133273;27;20087;-71
2022/08/05 09:51:34;;;;;;;1.48;1.38;;;37.30;34.80;;;;;;5133792;27;20078;-71
2022/08/05 09:54:00;;;;;;;2.38;1.50;;;37.10;35.30;;;;;;5133229;27;20099;-71
2022/08/05 09:56:36;;;;;;;1.65;1.55;;;37.10;35.40;;;;;;5133441;27;20023;-71
2022/08/05 09:59:06;;;;;;;2.42;1.80;;;37.20;35.60;;;;;;5124355;27;20392;-71
2022/08/05 10:01:35;;;;;;;2.90;1.77;;;37.20;35.30;;;;;;5112786;28;20026;-71
2022/08/05 10:04:07;;;;;;;2.58;1.80;;;37.20;35.10;;;;;;5112480;28;20484;-71
2022/08/05 10:06:33;;;;;;;1.63;1.52;;;37.10;35.00;;;;;;5112784;28;20384;-71
2022/08/05 10:09:17;;;;;;;2.10;1.70;;;37.00;35.80;;;;;;5111956;28;20396;-70
2022/08/05 10:11:44;;;;;;;1.73;1.63;;;37.10;36.50;;;;;;5113019;28;20475;-70
2022/08/05 10:14:27;;;;;;;3.38;1.67;;;37.10;35.60;;;;;;5112438;28;20088;-71
2022/08/05 10:16:57;;;;;;;1.90;1.80;;;37.00;35.40;;;;;;5112887;28;20050;-70
2022/08/05 10:19:24;;;;;;;2.10;1.88;;;36.90;36.30;;;;;;5112739;28;20031;-71
2022/08/05 10:21:51;;;;;;;2.67;1.70;;;37.00;36.50;;;;;;5112698;28;20361;-71
2022/08/05 10:24:18;;;;;;;2.38;1.60;;;37.00;36.90;;;;;;5112182;28;20424;-70
2022/08/05 10:26:48;;;;;;;1.70;1.60;;;37.10;35.80;;;;;;5115254;27;20084;-70
2022/08/05 10:29:14;;;;;;;1.77;1.67;;;37.00;36.00;;;;;;5112413;28;20376;-70
2022/08/05 10:31:40;;;;;;;1.80;1.70;;;36.90;35.70;;;;;;5112509;28;20039;-70
2022/08/05 10:34:08;;;;;;;2.22;2.03;;;36.80;35.80;;;;;;5111936;28;20535;-70
2022/08/05 10:36:39;;;;;;;2.10;1.85;;;36.70;36.50;;;;;;5113181;28;20039;-70
2022/08/05 10:39:23;;;;;;;3.33;1.95;;;36.90;36.60;;;;;;5112315;28;20471;-71
2022/08/05 10:41:54;;;;;;;5.28;1.80;;;36.90;36.40;;;;;;5113104;28;20410;-70
2022/08/05 10:44:22;;;;;;;1.80;1.58;;;36.90;36.30;;;;;;5112229;28;20028;-70
2022/08/05 10:46:50;;;;;;;5.07;1.70;;;36.90;36.50;;;;;;5115906;28;20016;-70
2022/08/05 10:49:17;;;;;;;2.83;2.03;;;37.00;36.60;;;;;;5115951;28;20613;-70
2022/08/05 10:51:48;;;;;;;4.10;1.60;;;37.00;36.10;;;;;;5116854;28;20020;-70
2022/08/05 10:54:15;;;;;;;1.70;1.60;;;37.00;36.20;;;;;;5116409;28;20094;-70
2022/08/05 10:56:45;;;;;;;3.67;1.95;;;37.00;36.00;;;;;;5116343;28;20039;-71
2022/08/05 10:59:15;;;;;;;2.33;1.92;;;37.00;36.00;;;;;;5115922;28;20562;-71
2022/08/05 11:01:44;;;;;;;2.00;1.83;;;36.90;36.00;;;;;;5098264;28;20031;-72
2022/08/05 11:04:11;;;;;;;1.83;1.67;;;36.90;36.20;;;;;;5116353;28;20104;-70
2022/08/05 11:06:55;;;;;;;2.05;1.60;;;36.90;36.30;;;;;;5116394;28;20019;-70
2022/08/05 11:09:23;;;;;;;3.92;1.80;;;37.00;36.60;;;;;;5116053;28;20046;-73
2022/08/05 11:11:50;;;;;;;1.88;1.75;;;37.00;36.60;;;;;;5116519;28;20030;-70
2022/08/05 11:14:42;;;;;;;2.53;1.73;;;37.10;36.90;;;;;;5115989;28;20160;-70
2022/08/05 11:17:26;;;;;;;2.65;1.77;;;37.20;36.70;;;;;;5111246;28;20031;-72
2022/08/05 11:19:54;;;;;;;2.88;1.70;;;37.30;36.50;;;;;;5116159;28;20030;-71
2022/08/05 11:22:47;;;;;;;2.28;2.08;;;37.40;36.20;;;;;;5115988;28;20058;-71
2022/08/05 11:25:36;;;;;;;2.47;2.00;;;37.40;35.70;;;;;;5112308;28;20032;-72
2022/08/05 11:28:10;;;;;;;2.70;1.90;;;37.40;35.50;;;;;;5115637;28;20023;-71
2022/08/05 11:30:57;;;;;;;2.55;1.67;;;37.40;35.60;;;;;;5116131;28;20107;-70
2022/08/05 11:33:29;;;;;;;3.25;1.88;;;37.40;35.50;;;;;;5097320;28;20042;-71
2022/08/05 11:35:57;;;;;;;3.22;2.00;;;37.30;35.50;;;;;;5116089;28;20062;-72
2022/08/05 11:38:53;;;;;;;1.83;1.70;;;37.40;36.00;;;;;;5115559;28;20024;-70
2022/08/05 11:41:28;;;;;;;2.85;2.28;;;37.30;36.10;;;;;;5113128;28;20058;-71
2022/08/05 11:44:02;;;;;;;2.90;2.10;;;37.40;35.90;;;;;;5115888;28;20114;-71
2022/08/05 11:46:38;;;;;;;2.45;1.98;;;37.20;36.10;;;;;;5115905;28;20046;-71
2022/08/05 11:49:05;;;;;;;2.25;1.90;;;37.20;36.30;;;;;;5115311;28;20020;-71
2022/08/05 11:51:31;;;;;;;1.98;1.83;;;37.20;36.10;;;;;;5115775;28;20055;-71
2022/08/05 11:54:00;;;;;;;1.88;1.70;;;37.20;35.90;;;;;;5115800;28;20427;-71
2022/08/05 11:56:41;;;;;;;2.30;1.80;;;37.20;36.10;;;;;;5115709;28;20024;-71
2022/08/05 11:59:13;;;;;;;2.38;1.90;;;37.10;36.30;;;;;;5114651;28;20020;-72
2022/08/05 12:02:01;;;;;;;2.20;2.00;;;37.10;36.00;;;;;;5116687;27;20070;-71
2022/08/05 12:04:36;;;;;;;2.42;1.95;;;37.20;36.10;;;;;;5115804;28;20524;-71
2022/08/05 12:07:02;;;;;;;2.72;2.10;;;37.10;36.20;;;;;;5115581;28;20072;-72
2022/08/05 12:09:29;;;;;;;4.22;2.13;;;37.00;35.90;;;;;;5115456;28;20376;-71
2022/08/05 12:11:55;;;;;;;2.05;1.67;;;36.90;36.30;;;;;;5115252;28;20031;-71
2022/08/05 12:14:21;;;;;;;2.22;1.92;;;36.80;36.40;;;;;;5114693;28;20032;-71
2022/08/05 12:16:47;;;;;;;2.03;1.83;;;36.80;36.30;;;;;;5115244;28;20027;-71
2022/08/05 12:19:14;;;;;;;3.42;2.78;;;36.70;36.30;;;;;;5117500;27;20019;-71
2022/08/05 12:21:46;;;;;;;2.90;1.90;;;36.60;36.60;;;;;;5115238;28;20028;-71
2022/08/05 12:24:21;;;;;;;1.90;1.80;;;36.60;36.70;;;;;;5114846;28;20474;-71
2022/08/05 12:26:52;;;;;;;2.10;1.92;;;36.50;36.50;;;;;;5115140;28;20102;-71
2022/08/05 12:29:23;;;;;;;2.70;2.00;;;36.50;36.30;;;;;;5114202;28;20131;-71
2022/08/05 12:31:56;;;;;;;4.68;3.13;;;36.30;36.70;;;;;;5115051;28;20058;-71
2022/08/05 12:34:28;;;;;;;2.15;1.90;;;36.20;37.10;;;;;;5114422;28;20024;-71
2022/08/05 12:37:14;;;;;;;6.43;2.13;;;36.20;37.10;;;;;;5114930;28;20031;-71
2022/08/05 12:39:41;;;;;;;2.25;1.98;;;36.10;37.10;;;;;;5099978;28;20032;-71
2022/08/05 12:42:17;;;;;;;2.20;2.00;;;36.00;37.20;;;;;;5114299;28;20034;-72
2022/08/05 12:44:44;;;;;;;2.55;2.00;;;36.00;37.80;;;;;;5114844;28;20111;-71
2022/08/05 12:47:13;;;;;;;2.10;1.90;;;35.90;37.50;;;;;;5114370;28;20031;-72
2022/08/05 12:49:44;;;;;;;3.97;2.17;;;35.80;37.70;;;;;;5114578;28;20034;-71
2022/08/05 12:52:15;;;;;;;3.20;2.20;;;35.80;37.40;;;;;;5114407;28;20452;-72
2022/08/05 12:54:42;;;;;;;2.28;2.00;;;35.70;36.40;;;;;;5079290;28;20031;-71
2022/08/05 12:57:10;;;;;;;3.00;2.13;;;35.60;37.00;;;;;;5114041;28;20032;-71
2022/08/05 12:59:45;;;;;;;1.88;1.65;;;35.60;37.10;;;;;;5114514;28;20035;-71
2022/08/05 13:02:11;;;;;;;2.35;2.15;;;35.60;37.90;;;;;;5114178;28;20038;-72